sensor_id;sensor_type;location;lat;lon;timestamp;pressure;altitude;pressure_sealevel;temperature;humidity
8318;BME280;4196;48.926;8.964;2023-03-14T00:00:24;97360.81;;;9.23;100.00
8318;BME280;4196;48.926;8.964;2023-03-14T00:03:10;97342.88;;;9.18;100.00
8318;BME280;4196;48.926;8.964;2023-03-14T00:05:56;97372.81;;;9.25;100.00
8318;BME280;4196;48.926;8.964;2023-03-14T00:08:47;97389.19;;;9.24;100.00
8318;BME280;4196;48.926;8.964;2023-03-14T00:11:34;97385.91;;;9.17;100.00
8318;BME280;4196;48.926;8.964;2023-03-14T00:14:20;97373.78;;;9.21;100.00
8318;BME280;4196;48.926;8.964;2023-03-14T00:17:07;97358.28;;;9.21;100.00
8318;BME280;4196;48.926;8.964;2023-03-14T00:19:53;97365.22;;;9.19;100.00
8318;BME280;4196;48.926;8.964;2023-03-14T00:22:41;97375.34;;;9.28;100.00
8318;BME280;4196;48.926;8.964;2023-03-14T00:25:27;97331.00;;;9.11;100.00
8318;BME280;4196;48.926;8.964;2023-03-14T00:28:14;97360.78;;;9.24;100.00
8318;BME280;4196;48.926;8.964;2023-03-14T00:31:05;97385.81;;;9.22;100.00
8318;BME280;4196;48.926;8.964;2023-03-14T00:33:53;97352.75;;;9.01;100.00
8318;BME280;4196;48.926;8.964;2023-03-14T00:36:40;97383.28;;;9.19;100.00
8318;BME280;4196;48.926;8.964;2023-03-14T00:39:26;97363.91;;;9.03;100.00
8318;BME280;4196;48.926;8.964;2023-03-14T00:42:13;97347.78;;;8.93;100.00
8318;BME280;4196;48.926;8.964;2023-03-14T00:45:00;97341.13;;;8.83;100.00
8318;BME280;4196;48.926;8.964;2023-03-14T00:47:46;97363.91;;;9.03;100.00
8318;BME280;4196;48.926;8.964;2023-03-14T00:50:33;97357.38;;;8.86;100.00
8318;BME280;4196;48.926;8.964;2023-03-14T00:53:19;97388.88;;;9.02;100.00
8318;BME280;4196;48.926;8.964;2023-03-14T00:56:09;97400.03;;;9.03;100.00
8318;BME280;4196;48.926;8.964;2023-03-14T00:58:56;97364.25;;;8.87;100.00
8318;BME280;4196;48.926;8.964;2023-03-14T01:01:43;97414.41;;;9.14;100.00
8318;BME280;4196;48.926;8.964;2023-03-14T01:04:31;97400.09;;;9.00;100.00
8318;BME280;4196;48.926;8.964;2023-03-14T01:07:20;97413.44;;;9.18;100.00
8318;BME280;4196;48.926;8.964;2023-03-14T01:10:07;97379.31;;;9.06;100.00
8318;BME280;4196;48.926;8.964;2023-03-14T01:12:56;97408.22;;;9.20;100.00
8318;BME280;4196;48.926;8.964;2023-03-14T01:15:42;97370.63;;;9.10;100.00
8318;BME280;4196;48.926;8.964;2023-03-14T01:18:29;97362.78;;;9.13;100.00
8318;BME280;4196;48.926;8.964;2023-03-14T01:24:10;97387.81;;;9.45;100.00
8318;BME280;4196;48.926;8.964;2023-03-14T01:26:57;97376.59;;;9.46;100.00
8318;BME280;4196;48.926;8.964;2023-03-14T01:29:45;97352.38;;;9.16;100.00
8318;BME280;4196;48.926;8.964;2023-03-14T01:32:34;97367.34;;;9.37;100.00
8318;BME280;4196;48.926;8.964;2023-03-14T01:35:20;97310.09;;;9.20;100.00
8318;BME280;4196;48.926;8.964;2023-03-14T01:38:07;97315.34;;;9.17;100.00
8318;BME280;4196;48.926;8.964;2023-03-14T01:40:53;97299.13;;;9.12;100.00
8318;BME280;4196;48.926;8.964;2023-03-14T01:43:40;97265.22;;;8.91;100.00
8318;BME280;4196;48.926;8.964;2023-03-14T01:49:24;97286.53;;;9.00;100.00
8318;BME280;4196;48.926;8.964;2023-03-14T01:52:29;97273.53;;;9.03;100.00
8318;BME280;4196;48.926;8.964;2023-03-14T01:55:22;97275.09;;;9.08;100.00
8318;BME280;4196;48.926;8.964;2023-03-14T01:58:09;97281.44;;;8.97;100.00
8318;BME280;4196;48.926;8.964;2023-03-14T02:00:57;97282.72;;;9.13;100.00
8318;BME280;4196;48.926;8.964;2023-03-14T02:03:56;97280.31;;;9.07;100.00
8318;BME280;4196;48.926;8.964;2023-03-14T02:06:51;97275.94;;;9.09;100.00
8318;BME280;4196;48.926;8.964;2023-03-14T02:09:42;97303.63;;;9.04;100.00
8318;BME280;4196;48.926;8.964;2023-03-14T02:12:34;97292.06;;;8.84;100.00
8318;BME280;4196;48.926;8.964;2023-03-14T02:15:47;97274.28;;;8.72;100.00
8318;BME280;4196;48.926;8.964;2023-03-14T02:19:03;97266.66;;;8.67;100.00
8318;BME280;4196;48.926;8.964;2023-03-14T02:22:13;97292.84;;;8.86;100.00
8318;BME280;4196;48.926;8.964;2023-03-14T02:25:13;97285.03;;;8.89;100.00
8318;BME280;4196;48.926;8.964;2023-03-14T02:28:03;97274.78;;;8.88;100.00
8318;BME280;4196;48.926;8.964;2023-03-14T02:30:53;97246.91;;;8.66;100.00
8318;BME280;4196;48.926;8.964;2023-03-14T02:33:40;97243.22;;;8.77;100.00
8318;BME280;4196;48.926;8.964;2023-03-14T02:36:27;97240.84;;;8.69;100.00
8318;BME280;4196;48.926;8.964;2023-03-14T02:39:25;97259.03;;;8.99;100.00
8318;BME280;4196;48.926;8.964;2023-03-14T02:42:14;97256.91;;;9.13;100.00
8318;BME280;4196;48.926;8.964;2023-03-14T02:48:02;97182.84;;;8.84;100.00
8318;BME280;4196;48.926;8.964;2023-03-14T02:50:55;97226.66;;;9.18;100.00
8318;BME280;4196;48.926;8.964;2023-03-14T02:53:42;97191.22;;;8.90;100.00
8318;BME280;4196;48.926;8.964;2023-03-14T02:56:31;97209.78;;;9.06;100.00
8318;BME280;4196;48.926;8.964;2023-03-14T02:59:19;97185.88;;;8.98;100.00
8318;BME280;4196;48.926;8.964;2023-03-14T03:02:14;97195.19;;;9.04;100.00
8318;BME280;4196;48.926;8.964;2023-03-14T03:05:00;97180.53;;;9.06;100.00
8318;BME280;4196;48.926;8.964;2023-03-14T03:07:47;97171.13;;;9.03;100.00
8318;BME280;4196;48.926;8.964;2023-03-14T03:10:33;97151.09;;;8.80;100.00
8318;BME280;4196;48.926;8.964;2023-03-14T03:13:20;97163.03;;;8.84;100.00
8318;BME280;4196;48.926;8.964;2023-03-14T03:16:11;97174.97;;;8.88;100.00
8318;BME280;4196;48.926;8.964;2023-03-14T03:19:00;97182.84;;;8.84;100.00
8318;BME280;4196;48.926;8.964;2023-03-14T03:21:47;97182.53;;;8.94;100.00
8318;BME280;4196;48.926;8.964;2023-03-14T03:24:34;97147.13;;;8.67;100.00
8318;BME280;4196;48.926;8.964;2023-03-14T03:27:21;97179.28;;;8.88;100.00
8318;BME280;4196;48.926;8.964;2023-03-14T03:30:08;97174.84;;;8.93;100.00
8318;BME280;4196;48.926;8.964;2023-03-14T03:32:55;97159.97;;;8.70;100.00
8318;BME280;4196;48.926;8.964;2023-03-14T03:35:46;97160.09;;;8.65;100.00
8318;BME280;4196;48.926;8.964;2023-03-14T03:38:36;97126.63;;;8.61;100.00
8318;BME280;4196;48.926;8.964;2023-03-14T03:41:23;97177.06;;;9.07;100.00
8318;BME280;4196;48.926;8.964;2023-03-14T03:44:11;97111.97;;;8.63;100.00
8318;BME280;4196;48.926;8.964;2023-03-14T03:46:59;97146.00;;;8.77;100.00
8318;BME280;4196;48.926;8.964;2023-03-14T03:49:45;97138.91;;;8.85;100.00
8318;BME280;4196;48.926;8.964;2023-03-14T03:52:32;97129.91;;;8.67;100.00
8318;BME280;4196;48.926;8.964;2023-03-14T03:55:18;97121.25;;;8.70;100.00
8318;BME280;4196;48.926;8.964;2023-03-14T03:58:06;97133.97;;;8.76;100.00
8318;BME280;4196;48.926;8.964;2023-03-14T04:00:52;97149.38;;;8.79;100.00
8318;BME280;4196;48.926;8.964;2023-03-14T04:03:38;97145.16;;;8.77;100.00
8318;BME280;4196;48.926;8.964;2023-03-14T04:06:26;97130.03;;;8.63;100.00
8318;BME280;4196;48.926;8.964;2023-03-14T04:09:16;97141.16;;;8.65;100.00
8318;BME280;4196;48.926;8.964;2023-03-14T04:12:06;97150.81;;;8.57;100.00
8318;BME280;4196;48.926;8.964;2023-03-14T04:15:07;97153.09;;;8.69;100.00
8318;BME280;4196;48.926;8.964;2023-03-14T04:17:58;97147.94;;;8.69;100.00
8318;BME280;4196;48.926;8.964;2023-03-14T04:20:45;97138.84;;;8.54;100.00
8318;BME280;4196;48.926;8.964;2023-03-14T04:23:32;97121.75;;;8.50;100.00
8318;BME280;4196;48.926;8.964;2023-03-14T04:26:20;97145.00;;;8.49;100.00
8318;BME280;4196;48.926;8.964;2023-03-14T04:29:07;97138.59;;;8.29;100.00
8318;BME280;4196;48.926;8.964;2023-03-14T04:31:53;97128.03;;;8.03;100.00
8318;BME280;4196;48.926;8.964;2023-03-14T04:34:41;97108.47;;;7.95;100.00
8318;BME280;4196;48.926;8.964;2023-03-14T04:37:27;97118.41;;;8.11;100.00
8318;BME280;4196;48.926;8.964;2023-03-14T04:40:14;97138.59;;;8.29;100.00
8318;BME280;4196;48.926;8.964;2023-03-14T04:43:04;97107.22;;;8.12;100.00
8318;BME280;4196;48.926;8.964;2023-03-14T04:45:54;97108.19;;;8.08;100.00
8318;BME280;4196;48.926;8.964;2023-03-14T04:48:41;97100.78;;;8.28;100.00
8318;BME280;4196;48.926;8.964;2023-03-14T04:51:27;97106.97;;;8.21;100.00
8318;BME280;4196;48.926;8.964;2023-03-14T04:54:14;97106.31;;;8.13;100.00
8318;BME280;4196;48.926;8.964;2023-03-14T04:57:00;97119.66;;;8.30;100.00
8318;BME280;4196;48.926;8.964;2023-03-14T04:59:50;97101.91;;;8.18;100.00
8318;BME280;4196;48.926;8.964;2023-03-14T05:02:55;97094.25;;;8.15;100.00
8318;BME280;4196;48.926;8.964;2023-03-14T05:06:04;97094.53;;;8.03;100.00
8318;BME280;4196;48.926;8.964;2023-03-14T05:09:07;97098.31;;;7.89;100.00
8318;BME280;4196;48.926;8.964;2023-03-14T05:12:12;97079.69;;;7.78;100.00
8318;BME280;4196;48.926;8.964;2023-03-14T05:15:31;97033.56;;;7.29;100.00
8318;BME280;4196;48.926;8.964;2023-03-14T05:18:37;97068.44;;;7.43;100.00
8318;BME280;4196;48.926;8.964;2023-03-14T05:21:41;97083.25;;;7.32;100.00
8318;BME280;4196;48.926;8.964;2023-03-14T05:24:51;97094.56;;;7.25;100.00
8318;BME280;4196;48.926;8.964;2023-03-14T05:27:55;97064.16;;;7.04;100.00
8318;BME280;4196;48.926;8.964;2023-03-14T05:30:59;97088.84;;;7.12;100.00
8318;BME280;4196;48.926;8.964;2023-03-14T05:34:06;97081.84;;;7.19;100.00
8318;BME280;4196;48.926;8.964;2023-03-14T05:36:58;97047.66;;;7.12;100.00
8318;BME280;4196;48.926;8.964;2023-03-14T05:40:13;97016.84;;;7.09;100.00
8318;BME280;4196;48.926;8.964;2023-03-14T05:43:18;97084.53;;;7.53;100.00
8318;BME280;4196;48.926;8.964;2023-03-14T05:46:40;97083.34;;;7.68;100.00
8318;BME280;4196;48.926;8.964;2023-03-14T05:49:52;97053.56;;;7.56;100.00
8318;BME280;4196;48.926;8.964;2023-03-14T05:52:58;97074.28;;;7.87;100.00
8318;BME280;4196;48.926;8.964;2023-03-14T05:56:03;97053.84;;;7.81;100.00
8318;BME280;4196;48.926;8.964;2023-03-14T05:59:10;97073.50;;;7.85;100.00
8318;BME280;4196;48.926;8.964;2023-03-14T06:02:02;97091.91;;;7.70;100.00
8318;BME280;4196;48.926;8.964;2023-03-14T06:04:59;97037.63;;;7.40;100.00
8318;BME280;4196;48.926;8.964;2023-03-14T06:07:45;97082.06;;;7.48;100.00
8318;BME280;4196;48.926;8.964;2023-03-14T06:10:34;97049.91;;;7.29;100.00
8318;BME280;4196;48.926;8.964;2023-03-14T06:13:22;97087.28;;;7.45;100.00
8318;BME280;4196;48.926;8.964;2023-03-14T06:16:08;97084.22;;;7.28;100.00
8318;BME280;4196;48.926;8.964;2023-03-14T06:18:55;97079.06;;;7.28;100.00
8318;BME280;4196;48.926;8.964;2023-03-14T06:21:42;97071.91;;;7.02;100.00
8318;BME280;4196;48.926;8.964;2023-03-14T06:24:29;97063.59;;;6.88;100.00
8318;BME280;4196;48.926;8.964;2023-03-14T06:27:16;97052.69;;;6.78;100.00
8318;BME280;4196;48.926;8.964;2023-03-14T06:30:04;97085.38;;;7.15;100.00
8318;BME280;4196;48.926;8.964;2023-03-14T06:32:51;97060.25;;;7.26;100.00
8318;BME280;4196;48.926;8.964;2023-03-14T06:35:40;97066.69;;;7.45;100.00
8318;BME280;4196;48.926;8.964;2023-03-14T06:38:27;97029.97;;;7.37;100.00
8318;BME280;4196;48.926;8.964;2023-03-14T06:41:15;97055.84;;;7.70;100.00
8318;BME280;4196;48.926;8.964;2023-03-14T06:44:04;97058.25;;;7.76;100.00
8318;BME280;4196;48.926;8.964;2023-03-14T06:46:51;97037.94;;;7.64;100.00
8318;BME280;4196;48.926;8.964;2023-03-14T06:49:38;97039.72;;;7.60;100.00
8318;BME280;4196;48.926;8.964;2023-03-14T06:52:27;97038.53;;;7.75;100.00
8318;BME280;4196;48.926;8.964;2023-03-14T06:55:15;97031.03;;;8.00;100.00
8318;BME280;4196;48.926;8.964;2023-03-14T06:58:02;97024.31;;;8.27;100.00
8318;BME280;4196;48.926;8.964;2023-03-14T07:00:53;97068.72;;;9.04;100.00
8318;BME280;4196;48.926;8.964;2023-03-14T07:03:44;97055.47;;;9.44;100.00
8318;BME280;4196;48.926;8.964;2023-03-14T07:06:33;97080.63;;;9.93;100.00
8318;BME280;4196;48.926;8.964;2023-03-14T07:09:19;97077.94;;;10.23;100.00
8318;BME280;4196;48.926;8.964;2023-03-14T07:12:11;97081.53;;;10.46;100.00
8318;BME280;4196;48.926;8.964;2023-03-14T07:14:58;97076.22;;;10.75;100.00
8318;BME280;4196;48.926;8.964;2023-03-14T07:18:02;97086.31;;;11.06;100.00
8318;BME280;4196;48.926;8.964;2023-03-14T07:20:50;97023.63;;;10.97;100.00
8318;BME280;4196;48.926;8.964;2023-03-14T07:23:38;97062.84;;;11.56;99.21
8318;BME280;4196;48.926;8.964;2023-03-14T07:26:25;97080.44;;;11.70;92.87
8318;BME280;4196;48.926;8.964;2023-03-14T07:29:12;97042.19;;;11.31;94.30
8318;BME280;4196;48.926;8.964;2023-03-14T07:32:00;97065.78;;;11.47;96.11
8318;BME280;4196;48.926;8.964;2023-03-14T07:34:47;97082.41;;;11.42;96.20
8318;BME280;4196;48.926;8.964;2023-03-14T07:37:34;97081.28;;;11.25;97.78
8318;BME280;4196;48.926;8.964;2023-03-14T07:40:22;97063.44;;;11.18;97.08
8318;BME280;4196;48.926;8.964;2023-03-14T07:43:09;97097.50;;;11.54;91.64
8318;BME280;4196;48.926;8.964;2023-03-14T07:46:06;97087.00;;;11.57;92.54
8318;BME280;4196;48.926;8.964;2023-03-14T07:48:53;97100.28;;;11.71;91.24
8318;BME280;4196;48.926;8.964;2023-03-14T07:51:40;97064.56;;;11.78;84.31
8318;BME280;4196;48.926;8.964;2023-03-14T07:54:26;97052.78;;;11.93;83.50
8318;BME280;4196;48.926;8.964;2023-03-14T07:57:13;97093.06;;;12.23;83.32
8318;BME280;4196;48.926;8.964;2023-03-14T07:59:59;97094.22;;;12.37;82.34
8318;BME280;4196;48.926;8.964;2023-03-14T08:02:45;97094.91;;;12.42;83.88
8318;BME280;4196;48.926;8.964;2023-03-14T08:05:36;97096.25;;;12.30;80.13
8318;BME280;4196;48.926;8.964;2023-03-14T08:08:22;97093.31;;;12.17;80.36
8318;BME280;4196;48.926;8.964;2023-03-14T08:11:09;97057.59;;;11.80;82.07
8318;BME280;4196;48.926;8.964;2023-03-14T08:13:56;97069.22;;;11.93;82.72
8318;BME280;4196;48.926;8.964;2023-03-14T08:16:42;97084.28;;;12.05;82.71
8318;BME280;4196;48.926;8.964;2023-03-14T08:19:28;97064.31;;;11.85;81.27
8318;BME280;4196;48.926;8.964;2023-03-14T08:22:14;97074.72;;;12.06;80.74
8318;BME280;4196;48.926;8.964;2023-03-14T08:25:08;97075.03;;;12.20;81.29
8318;BME280;4196;48.926;8.964;2023-03-14T08:27:56;97080.88;;;12.46;79.99
8318;BME280;4196;48.926;8.964;2023-03-14T08:30:42;97066.41;;;12.61;77.41
8318;BME280;4196;48.926;8.964;2023-03-14T08:33:32;97041.91;;;12.87;77.93
8318;BME280;4196;48.926;8.964;2023-03-14T08:36:19;97067.16;;;13.22;76.43
8318;BME280;4196;48.926;8.964;2023-03-14T08:39:09;97046.16;;;13.08;76.34
8318;BME280;4196;48.926;8.964;2023-03-14T08:41:56;97028.97;;;13.24;75.40
8318;BME280;4196;48.926;8.964;2023-03-14T08:44:42;97078.34;;;13.62;74.66
8318;BME280;4196;48.926;8.964;2023-03-14T08:47:29;97064.47;;;13.05;75.14
8318;BME280;4196;48.926;8.964;2023-03-14T08:50:16;97073.72;;;13.11;75.72
8318;BME280;4196;48.926;8.964;2023-03-14T08:53:02;97028.63;;;12.53;77.50
8318;BME280;4196;48.926;8.964;2023-03-14T08:55:53;97093.84;;;12.87;76.85
8318;BME280;4196;48.926;8.964;2023-03-14T08:58:40;97075.97;;;12.60;80.01
8318;BME280;4196;48.926;8.964;2023-03-14T09:01:27;97092.16;;;12.24;83.51
8318;BME280;4196;48.926;8.964;2023-03-14T09:04:14;97130.59;;;11.93;89.11
8318;BME280;4196;48.926;8.964;2023-03-14T09:07:00;97126.44;;;11.65;91.20
8318;BME280;4196;48.926;8.964;2023-03-14T09:09:46;97117.13;;;11.59;92.01
8318;BME280;4196;48.926;8.964;2023-03-14T09:12:33;97141.09;;;11.66;91.75
8318;BME280;4196;48.926;8.964;2023-03-14T09:15:19;97127.03;;;11.50;91.91
8318;BME280;4196;48.926;8.964;2023-03-14T09:18:06;97104.84;;;11.43;91.47
8318;BME280;4196;48.926;8.964;2023-03-14T09:20:52;97142.72;;;11.69;92.35
8318;BME280;4196;48.926;8.964;2023-03-14T09:23:38;97154.84;;;11.92;94.03
8318;BME280;4196;48.926;8.964;2023-03-14T09:26:24;97139.94;;;11.73;93.94
8318;BME280;4196;48.926;8.964;2023-03-14T09:29:11;97134.44;;;11.59;91.33
8318;BME280;4196;48.926;8.964;2023-03-14T09:31:59;97157.66;;;11.62;92.27
8318;BME280;4196;48.926;8.964;2023-03-14T09:34:46;97171.06;;;11.73;91.89
8318;BME280;4196;48.926;8.964;2023-03-14T09:37:33;97178.19;;;11.68;92.10
8318;BME280;4196;48.926;8.964;2023-03-14T09:40:22;97165.50;;;11.60;94.33
8318;BME280;4196;48.926;8.964;2023-03-14T09:43:14;97154.31;;;11.60;92.15
8318;BME280;4196;48.926;8.964;2023-03-14T09:46:02;97173.91;;;11.67;89.22
8318;BME280;4196;48.926;8.964;2023-03-14T09:48:49;97176.34;;;11.70;91.03
8318;BME280;4196;48.926;8.964;2023-03-14T09:51:35;97150.78;;;11.61;91.73
8318;BME280;4196;48.926;8.964;2023-03-14T09:54:37;97170.19;;;11.98;91.08
8318;BME280;4196;48.926;8.964;2023-03-14T09:57:25;97171.75;;;12.24;87.48
8318;BME280;4196;48.926;8.964;2023-03-14T10:00:31;97169.63;;;12.76;87.39
8318;BME280;4196;48.926;8.964;2023-03-14T10:03:25;97117.75;;;12.74;85.42
8318;BME280;4196;48.926;8.964;2023-03-14T10:06:13;97140.81;;;13.21;82.83
8318;BME280;4196;48.926;8.964;2023-03-14T10:09:02;97121.28;;;13.33;83.77
8318;BME280;4196;48.926;8.964;2023-03-14T10:11:49;97146.13;;;13.78;85.24
8318;BME280;4196;48.926;8.964;2023-03-14T10:14:37;97145.75;;;13.48;79.88
8318;BME280;4196;48.926;8.964;2023-03-14T10:17:47;97123.75;;;13.16;81.35
8318;BME280;4196;48.926;8.964;2023-03-14T10:20:41;97023.00;;;12.44;82.26
8318;BME280;4196;48.926;8.964;2023-03-14T10:23:30;97131.06;;;13.08;81.65
8318;BME280;4196;48.926;8.964;2023-03-14T10:26:23;97160.97;;;13.16;82.63
8318;BME280;4196;48.926;8.964;2023-03-14T10:29:12;97141.38;;;13.09;85.55
8318;BME280;4196;48.926;8.964;2023-03-14T10:32:03;97163.19;;;13.05;84.37
8318;BME280;4196;48.926;8.964;2023-03-14T10:35:18;97164.00;;;13.07;90.24
8318;BME280;4196;48.926;8.964;2023-03-14T10:38:13;97170.03;;;12.87;89.19
8318;BME280;4196;48.926;8.964;2023-03-14T10:41:01;97179.94;;;12.77;91.76
8318;BME280;4196;48.926;8.964;2023-03-14T10:43:54;97176.94;;;12.66;93.43
8318;BME280;4196;48.926;8.964;2023-03-14T10:46:42;97169.44;;;12.38;93.36
8318;BME280;4196;48.926;8.964;2023-03-14T10:49:45;97170.06;;;12.01;98.45
8318;BME280;4196;48.926;8.964;2023-03-14T10:52:31;97184.50;;;11.84;100.00
8318;BME280;4196;48.926;8.964;2023-03-14T10:55:41;97204.09;;;11.68;100.00
8318;BME280;4196;48.926;8.964;2023-03-14T10:58:30;97108.72;;;10.82;100.00
8318;BME280;4196;48.926;8.964;2023-03-14T11:10:25;97177.50;;;11.40;100.00
8318;BME280;4196;48.926;8.964;2023-03-14T11:13:34;97200.31;;;11.77;100.00
8318;BME280;4196;48.926;8.964;2023-03-14T11:16:38;97208.94;;;11.77;100.00
8318;BME280;4196;48.926;8.964;2023-03-14T11:23:18;97206.91;;;11.39;100.00
8318;BME280;4196;48.926;8.964;2023-03-14T11:29:20;97211.16;;;11.16;100.00
8318;BME280;4196;48.926;8.964;2023-03-14T11:38:48;97217.47;;;11.57;100.00
8318;BME280;4196;48.926;8.964;2023-03-14T11:41:40;97223.84;;;11.49;100.00
8318;BME280;4196;48.926;8.964;2023-03-14T11:44:39;97220.50;;;11.20;100.00
8318;BME280;4196;48.926;8.964;2023-03-14T11:47:29;97221.53;;;10.89;100.00
8318;BME280;4196;48.926;8.964;2023-03-14T11:50:24;97258.03;;;10.82;100.00
8318;BME280;4196;48.926;8.964;2023-03-14T11:53:17;97232.97;;;10.57;100.00
8318;BME280;4196;48.926;8.964;2023-03-14T11:56:15;97254.28;;;10.64;100.00
8318;BME280;4196;48.926;8.964;2023-03-14T11:59:06;97276.00;;;10.60;100.00
8318;BME280;4196;48.926;8.964;2023-03-14T12:02:10;97258.56;;;10.38;100.00
8318;BME280;4196;48.926;8.964;2023-03-14T12:11:09;97281.28;;;9.98;100.00
8318;BME280;4196;48.926;8.964;2023-03-14T12:13:58;97271.44;;;9.50;100.00
8318;BME280;4196;48.926;8.964;2023-03-14T12:16:47;97327.34;;;9.52;100.00
8318;BME280;4196;48.926;8.964;2023-03-14T12:19:38;97342.69;;;9.26;100.00
8318;BME280;4196;48.926;8.964;2023-03-14T12:22:36;97362.59;;;8.83;100.00
8318;BME280;4196;48.926;8.964;2023-03-14T12:25:30;97361.63;;;8.52;100.00
8318;BME280;4196;48.926;8.964;2023-03-14T12:28:20;97380.81;;;8.35;100.00
8318;BME280;4196;48.926;8.964;2023-03-14T12:42:56;97408.06;;;8.07;100.00
8318;BME280;4196;48.926;8.964;2023-03-14T12:46:09;97404.56;;;8.53;100.00
8318;BME280;4196;48.926;8.964;2023-03-14T12:49:03;97414.84;;;8.94;98.94
8318;BME280;4196;48.926;8.964;2023-03-14T12:51:59;97432.75;;;9.38;94.71
8318;BME280;4196;48.926;8.964;2023-03-14T12:54:54;97400.84;;;9.40;90.23
8318;BME280;4196;48.926;8.964;2023-03-14T13:00:58;97458.94;;;10.28;83.34
8318;BME280;4196;48.926;8.964;2023-03-14T13:03:57;97441.44;;;10.36;77.50
8318;BME280;4196;48.926;8.964;2023-03-14T13:06:55;97445.22;;;10.23;72.82
8318;BME280;4196;48.926;8.964;2023-03-14T13:10:16;97481.53;;;9.87;70.16
8318;BME280;4196;48.926;8.964;2023-03-14T13:16:00;97503.63;;;9.65;69.44
8318;BME280;4196;48.926;8.964;2023-03-14T13:18:59;97506.09;;;9.70;67.75
8318;BME280;4196;48.926;8.964;2023-03-14T13:21:47;97499.09;;;9.37;66.21
8318;BME280;4196;48.926;8.964;2023-03-14T13:24:34;97538.91;;;9.66;64.01
8318;BME280;4196;48.926;8.964;2023-03-14T13:27:20;97530.69;;;9.49;61.58
8318;BME280;4196;48.926;8.964;2023-03-14T13:30:25;97556.47;;;9.52;60.54
8318;BME280;4196;48.926;8.964;2023-03-14T13:33:21;97550.63;;;9.43;60.38
8318;BME280;4196;48.926;8.964;2023-03-14T13:36:08;97574.06;;;9.73;61.35
8318;BME280;4196;48.926;8.964;2023-03-14T13:39:01;97579.91;;;9.81;59.57
8318;BME280;4196;48.926;8.964;2023-03-14T13:41:48;97560.88;;;9.47;58.21
8318;BME280;4196;48.926;8.964;2023-03-14T13:44:37;97568.41;;;9.17;56.10
8318;BME280;4196;48.926;8.964;2023-03-14T13:47:25;97628.25;;;9.37;55.34
8318;BME280;4196;48.926;8.964;2023-03-14T13:50:15;97596.09;;;9.10;54.57
8318;BME280;4196;48.926;8.964;2023-03-14T13:53:03;97601.16;;;9.15;54.86
8318;BME280;4196;48.926;8.964;2023-03-14T13:55:50;97645.00;;;9.18;54.65
8318;BME280;4196;48.926;8.964;2023-03-14T13:58:39;97622.97;;;9.00;53.97
8318;BME280;4196;48.926;8.964;2023-03-14T14:01:33;97636.72;;;9.02;56.24
8318;BME280;4196;48.926;8.964;2023-03-14T14:04:23;97670.94;;;9.12;56.49
8318;BME280;4196;48.926;8.964;2023-03-14T14:07:15;97679.38;;;9.20;56.30
8318;BME280;4196;48.926;8.964;2023-03-14T14:10:05;97672.81;;;9.04;54.14
8318;BME280;4196;48.926;8.964;2023-03-14T14:13:02;97687.56;;;8.99;53.78
8318;BME280;4196;48.926;8.964;2023-03-14T14:15:51;97709.91;;;9.00;52.94
8318;BME280;4196;48.926;8.964;2023-03-14T14:18:39;97691.16;;;8.88;52.69
8318;BME280;4196;48.926;8.964;2023-03-14T14:21:26;97702.97;;;9.02;52.60
8318;BME280;4196;48.926;8.964;2023-03-14T14:24:13;97732.31;;;8.98;52.71
8318;BME280;4196;48.926;8.964;2023-03-14T14:27:08;97669.22;;;8.66;53.54
8318;BME280;4196;48.926;8.964;2023-03-14T14:30:04;97737.59;;;8.90;53.80
8318;BME280;4196;48.926;8.964;2023-03-14T14:32:51;97729.19;;;8.79;54.06
8318;BME280;4196;48.926;8.964;2023-03-14T14:35:37;97748.56;;;9.03;54.26
8318;BME280;4196;48.926;8.964;2023-03-14T14:38:24;97746.91;;;9.00;53.69
8318;BME280;4196;48.926;8.964;2023-03-14T14:41:11;97737.47;;;8.98;54.78
8318;BME280;4196;48.926;8.964;2023-03-14T14:43:59;97760.56;;;9.05;52.95
8318;BME280;4196;48.926;8.964;2023-03-14T14:46:45;97772.34;;;9.20;52.89
8318;BME280;4196;48.926;8.964;2023-03-14T14:49:34;97763.22;;;9.49;50.93
8318;BME280;4196;48.926;8.964;2023-03-14T14:52:32;97765.34;;;9.27;51.05
8318;BME280;4196;48.926;8.964;2023-03-14T14:55:20;97735.41;;;9.16;51.60
8318;BME280;4196;48.926;8.964;2023-03-14T14:58:28;97674.59;;;9.00;52.88
8318;BME280;4196;48.926;8.964;2023-03-14T15:01:23;97778.34;;;9.68;50.92
8318;BME280;4196;48.926;8.964;2023-03-14T15:04:12;97775.97;;;9.58;51.22
8318;BME280;4196;48.926;8.964;2023-03-14T15:07:00;97795.41;;;9.77;50.34
8318;BME280;4196;48.926;8.964;2023-03-14T15:09:46;97805.78;;;9.76;49.40
8318;BME280;4196;48.926;8.964;2023-03-14T15:12:33;97802.13;;;9.41;49.87
8318;BME280;4196;48.926;8.964;2023-03-14T15:15:20;97811.03;;;9.23;50.91
8318;BME280;4196;48.926;8.964;2023-03-14T15:18:18;97820.00;;;9.04;51.64
8318;BME280;4196;48.926;8.964;2023-03-14T15:21:04;97778.25;;;8.77;52.86
8318;BME280;4196;48.926;8.964;2023-03-14T15:23:51;97791.88;;;8.85;52.12
8318;BME280;4196;48.926;8.964;2023-03-14T15:26:38;97818.47;;;8.90;53.49
8318;BME280;4196;48.926;8.964;2023-03-14T15:29:24;97849.31;;;8.98;53.04
8318;BME280;4196;48.926;8.964;2023-03-14T15:32:12;97851.00;;;9.02;53.96
8318;BME280;4196;48.926;8.964;2023-03-14T15:34:59;97862.03;;;9.12;54.03
8318;BME280;4196;48.926;8.964;2023-03-14T15:37:46;97854.56;;;8.93;54.04
8318;BME280;4196;48.926;8.964;2023-03-14T15:40:32;97857.25;;;8.86;55.20
8318;BME280;4196;48.926;8.964;2023-03-14T15:43:19;97813.06;;;8.50;55.46
8318;BME280;4196;48.926;8.964;2023-03-14T15:46:09;97846.56;;;8.53;55.54
8318;BME280;4196;48.926;8.964;2023-03-14T15:48:55;97839.06;;;8.32;56.62
8318;BME280;4196;48.926;8.964;2023-03-14T15:51:42;97871.50;;;8.53;56.32
8318;BME280;4196;48.926;8.964;2023-03-14T15:54:29;97855.22;;;8.51;57.12
8318;BME280;4196;48.926;8.964;2023-03-14T15:57:15;97878.25;;;8.61;57.92
8318;BME280;4196;48.926;8.964;2023-03-14T16:00:02;97887.69;;;8.64;58.15
8318;BME280;4196;48.926;8.964;2023-03-14T16:02:50;97880.03;;;8.59;58.43
8318;BME280;4196;48.926;8.964;2023-03-14T16:05:36;97857.13;;;8.33;59.64
8318;BME280;4196;48.926;8.964;2023-03-14T16:08:23;97897.34;;;8.51;60.41
8318;BME280;4196;48.926;8.964;2023-03-14T16:11:13;97865.88;;;8.20;60.58
8318;BME280;4196;48.926;8.964;2023-03-14T16:14:00;97899.19;;;8.37;61.18
8318;BME280;4196;48.926;8.964;2023-03-14T16:16:47;97891.56;;;8.29;62.08
8318;BME280;4196;48.926;8.964;2023-03-14T16:19:33;97896.72;;;8.29;61.71
8318;BME280;4196;48.926;8.964;2023-03-14T16:22:19;97882.19;;;8.22;62.38
8318;BME280;4196;48.926;8.964;2023-03-14T16:25:07;97902.81;;;8.22;63.78
8318;BME280;4196;48.926;8.964;2023-03-14T16:27:53;97932.72;;;8.35;66.51